sensor_id;sensor_type;location;lat;lon;timestamp;temperature;humidity
20803;DHT22;10562;-33.856;151.182;2022-11-15T00:01:05;25.50;99.90
20803;DHT22;10562;-33.856;151.182;2022-11-15T00:03:37;25.40;99.90
20803;DHT22;10562;-33.856;151.182;2022-11-15T00:06:08;25.60;99.90
20803;DHT22;10562;-33.856;151.182;2022-11-15T00:08:39;25.90;99.90
20803;DHT22;10562;-33.856;151.182;2022-11-15T00:11:12;25.40;99.90
20803;DHT22;10562;-33.856;151.182;2022-11-15T00:13:42;24.80;99.90
20803;DHT22;10562;-33.856;151.182;2022-11-15T00:16:16;24.40;99.90
20803;DHT22;10562;-33.856;151.182;2022-11-15T00:18:47;24.40;99.90
20803;DHT22;10562;-33.856;151.182;2022-11-15T00:21:18;24.00;99.90
20803;DHT22;10562;-33.856;151.182;2022-11-15T00:23:49;23.80;99.90
20803;DHT22;10562;-33.856;151.182;2022-11-15T00:26:20;23.90;99.90
20803;DHT22;10562;-33.856;151.182;2022-11-15T00:28:52;24.10;99.90
20803;DHT22;10562;-33.856;151.182;2022-11-15T00:31:25;24.40;99.90
20803;DHT22;10562;-33.856;151.182;2022-11-15T00:33:56;24.60;99.90
20803;DHT22;10562;-33.856;151.182;2022-11-15T00:36:27;24.70;99.90
20803;DHT22;10562;-33.856;151.182;2022-11-15T00:38:58;24.80;99.90
20803;DHT22;10562;-33.856;151.182;2022-11-15T00:41:28;24.80;99.90
20803;DHT22;10562;-33.856;151.182;2022-11-15T00:44:00;24.80;99.90
20803;DHT22;10562;-33.856;151.182;2022-11-15T00:46:32;24.40;99.90
20803;DHT22;10562;-33.856;151.182;2022-11-15T00:49:03;23.90;99.90
20803;DHT22;10562;-33.856;151.182;2022-11-15T00:51:34;23.50;99.90
20803;DHT22;10562;-33.856;151.182;2022-11-15T00:54:05;23.20;99.90
20803;DHT22;10562;-33.856;151.182;2022-11-15T00:56:36;23.00;99.90
20803;DHT22;10562;-33.856;151.182;2022-11-15T00:59:06;22.90;99.90
20803;DHT22;10562;-33.856;151.182;2022-11-15T01:01:39;23.00;99.90
20803;DHT22;10562;-33.856;151.182;2022-11-15T01:04:13;23.10;99.90
20803;DHT22;10562;-33.856;151.182;2022-11-15T01:06:44;23.20;99.90
20803;DHT22;10562;-33.856;151.182;2022-11-15T01:09:15;23.20;99.90
20803;DHT22;10562;-33.856;151.182;2022-11-15T01:11:46;23.10;99.90
20803;DHT22;10562;-33.856;151.182;2022-11-15T01:14:17;22.90;99.90
20803;DHT22;10562;-33.856;151.182;2022-11-15T01:16:50;22.80;99.90
20803;DHT22;10562;-33.856;151.182;2022-11-15T01:19:21;22.90;99.90
20803;DHT22;10562;-33.856;151.182;2022-11-15T01:21:52;23.20;99.90
20803;DHT22;10562;-33.856;151.182;2022-11-15T01:24:22;24.10;99.90
20803;DHT22;10562;-33.856;151.182;2022-11-15T01:26:53;24.60;99.90
20803;DHT22;10562;-33.856;151.182;2022-11-15T01:29:24;24.50;99.90
20803;DHT22;10562;-33.856;151.182;2022-11-15T01:31:57;24.20;99.90
20803;DHT22;10562;-33.856;151.182;2022-11-15T01:34:28;23.80;99.90
20803;DHT22;10562;-33.856;151.182;2022-11-15T01:36:59;23.60;99.90
20803;DHT22;10562;-33.856;151.182;2022-11-15T01:39:29;23.30;99.90
20803;DHT22;10562;-33.856;151.182;2022-11-15T01:42:00;23.50;99.90
20803;DHT22;10562;-33.856;151.182;2022-11-15T01:44:41;23.40;99.90
20803;DHT22;10562;-33.856;151.182;2022-11-15T01:47:18;23.80;99.90
20803;DHT22;10562;-33.856;151.182;2022-11-15T01:49:56;24.30;99.90
20803;DHT22;10562;-33.856;151.182;2022-11-15T01:52:29;24.60;99.90
20803;DHT22;10562;-33.856;151.182;2022-11-15T01:55:04;24.80;99.90
20803;DHT22;10562;-33.856;151.182;2022-11-15T01:57:36;24.70;99.90
20803;DHT22;10562;-33.856;151.182;2022-11-15T02:00:08;25.00;99.90
20803;DHT22;10562;-33.856;151.182;2022-11-15T02:02:42;25.10;99.90
20803;DHT22;10562;-33.856;151.182;2022-11-15T02:05:13;24.90;99.90
20803;DHT22;10562;-33.856;151.182;2022-11-15T02:07:45;25.00;99.90
20803;DHT22;10562;-33.856;151.182;2022-11-15T02:10:20;25.30;99.90
20803;DHT22;10562;-33.856;151.182;2022-11-15T02:12:52;25.30;99.90
20803;DHT22;10562;-33.856;151.182;2022-11-15T02:15:24;25.40;99.90
20803;DHT22;10562;-33.856;151.182;2022-11-15T02:18:08;25.90;99.90
20803;DHT22;10562;-33.856;151.182;2022-11-15T02:20:48;25.90;99.90
20803;DHT22;10562;-33.856;151.182;2022-11-15T02:23:55;25.50;99.90
20803;DHT22;10562;-33.856;151.182;2022-11-15T02:30:04;26.00;99.90
20803;DHT22;10562;-33.856;151.182;2022-11-15T02:32:42;26.10;99.90
20803;DHT22;10562;-33.856;151.182;2022-11-15T02:35:21;26.20;99.90
20803;DHT22;10562;-33.856;151.182;2022-11-15T02:37:58;26.30;99.90
20803;DHT22;10562;-33.856;151.182;2022-11-15T02:40:37;26.30;99.90
20803;DHT22;10562;-33.856;151.182;2022-11-15T02:43:10;26.60;99.90
20803;DHT22;10562;-33.856;151.182;2022-11-15T02:46:01;26.60;99.90
20803;DHT22;10562;-33.856;151.182;2022-11-15T02:48:35;26.70;99.90
20803;DHT22;10562;-33.856;151.182;2022-11-15T02:51:07;26.80;99.90
20803;DHT22;10562;-33.856;151.182;2022-11-15T02:53:37;26.80;99.90
20803;DHT22;10562;-33.856;151.182;2022-11-15T02:56:10;26.50;99.90
20803;DHT22;10562;-33.856;151.182;2022-11-15T02:59:02;27.10;99.90
20803;DHT22;10562;-33.856;151.182;2022-11-15T03:01:45;27.20;99.90
20803;DHT22;10562;-33.856;151.182;2022-11-15T03:04:32;27.20;99.90
20803;DHT22;10562;-33.856;151.182;2022-11-15T03:07:11;27.20;99.90
20803;DHT22;10562;-33.856;151.182;2022-11-15T03:09:50;27.40;99.90
20803;DHT22;10562;-33.856;151.182;2022-11-15T03:12:26;27.00;99.90
20803;DHT22;10562;-33.856;151.182;2022-11-15T03:15:04;26.90;99.90
20803;DHT22;10562;-33.856;151.182;2022-11-15T03:17:38;26.80;99.90
20803;DHT22;10562;-33.856;151.182;2022-11-15T03:20:14;26.90;99.90
20803;DHT22;10562;-33.856;151.182;2022-11-15T03:22:48;26.90;99.90
20803;DHT22;10562;-33.856;151.182;2022-11-15T03:25:22;26.80;99.90
20803;DHT22;10562;-33.856;151.182;2022-11-15T03:27:55;26.80;99.90
20803;DHT22;10562;-33.856;151.182;2022-11-15T03:30:26;26.80;99.90
20803;DHT22;10562;-33.856;151.182;2022-11-15T03:32:59;26.70;99.90
20803;DHT22;10562;-33.856;151.182;2022-11-15T03:35:35;26.70;99.90
20803;DHT22;10562;-33.856;151.182;2022-11-15T03:38:11;26.80;99.90
20803;DHT22;10562;-33.856;151.182;2022-11-15T03:40:49;27.00;99.90
20803;DHT22;10562;-33.856;151.182;2022-11-15T03:43:29;26.80;99.90
20803;DHT22;10562;-33.856;151.182;2022-11-15T03:46:02;26.50;99.90
20803;DHT22;10562;-33.856;151.182;2022-11-15T03:48:39;26.30;99.90
20803;DHT22;10562;-33.856;151.182;2022-11-15T03:51:13;26.50;99.90
20803;DHT22;10562;-33.856;151.182;2022-11-15T03:53:44;25.30;99.90
20803;DHT22;10562;-33.856;151.182;2022-11-15T03:56:16;25.00;99.90
20803;DHT22;10562;-33.856;151.182;2022-11-15T03:58:46;24.70;99.90
20803;DHT22;10562;-33.856;151.182;2022-11-15T04:01:17;24.80;99.90
20803;DHT22;10562;-33.856;151.182;2022-11-15T04:03:48;24.60;99.90
20803;DHT22;10562;-33.856;151.182;2022-11-15T04:06:22;24.60;99.90
20803;DHT22;10562;-33.856;151.182;2022-11-15T04:08:53;24.90;99.90
20803;DHT22;10562;-33.856;151.182;2022-11-15T04:11:24;25.20;99.90
20803;DHT22;10562;-33.856;151.182;2022-11-15T04:13:55;25.20;99.90
20803;DHT22;10562;-33.856;151.182;2022-11-15T04:16:26;25.00;99.90
20803;DHT22;10562;-33.856;151.182;2022-11-15T04:18:57;24.50;99.90
20803;DHT22;10562;-33.856;151.182;2022-11-15T04:21:46;23.80;99.90
20803;DHT22;10562;-33.856;151.182;2022-11-15T04:24:32;23.40;99.90
20803;DHT22;10562;-33.856;151.182;2022-11-15T04:27:02;23.20;99.90
20803;DHT22;10562;-33.856;151.182;2022-11-15T04:29:33;23.00;99.90
20803;DHT22;10562;-33.856;151.182;2022-11-15T04:32:06;22.70;99.90
20803;DHT22;10562;-33.856;151.182;2022-11-15T04:34:37;22.50;99.90
20803;DHT22;10562;-33.856;151.182;2022-11-15T04:37:10;22.70;99.90
20803;DHT22;10562;-33.856;151.182;2022-11-15T04:39:44;22.60;99.90
20803;DHT22;10562;-33.856;151.182;2022-11-15T04:42:15;23.10;99.90
20803;DHT22;10562;-33.856;151.182;2022-11-15T04:44:46;23.50;99.90
20803;DHT22;10562;-33.856;151.182;2022-11-15T04:47:17;23.30;99.90
20803;DHT22;10562;-33.856;151.182;2022-11-15T04:49:47;23.10;99.90
20803;DHT22;10562;-33.856;151.182;2022-11-15T04:52:20;23.40;99.90
20803;DHT22;10562;-33.856;151.182;2022-11-15T04:54:51;23.40;99.90
20803;DHT22;10562;-33.856;151.182;2022-11-15T04:57:22;23.90;99.90
20803;DHT22;10562;-33.856;151.182;2022-11-15T04:59:53;24.50;99.90
20803;DHT22;10562;-33.856;151.182;2022-11-15T05:02:25;25.30;99.90
20803;DHT22;10562;-33.856;151.182;2022-11-15T05:05:16;26.10;99.90
20803;DHT22;10562;-33.856;151.182;2022-11-15T05:07:47;26.00;99.90
20803;DHT22;10562;-33.856;151.182;2022-11-15T05:10:18;25.70;99.90
20803;DHT22;10562;-33.856;151.182;2022-11-15T05:12:49;25.20;99.90
20803;DHT22;10562;-33.856;151.182;2022-11-15T05:15:20;24.40;99.90
20803;DHT22;10562;-33.856;151.182;2022-11-15T05:17:53;23.90;99.90
20803;DHT22;10562;-33.856;151.182;2022-11-15T05:20:27;23.60;99.90
20803;DHT22;10562;-33.856;151.182;2022-11-15T05:23:00;23.70;99.90
20803;DHT22;10562;-33.856;151.182;2022-11-15T05:25:31;23.80;99.90
20803;DHT22;10562;-33.856;151.182;2022-11-15T05:28:02;24.10;99.90
20803;DHT22;10562;-33.856;151.182;2022-11-15T05:30:33;24.70;99.90
20803;DHT22;10562;-33.856;151.182;2022-11-15T05:33:06;25.10;99.90
20803;DHT22;10562;-33.856;151.182;2022-11-15T05:35:41;25.10;99.90
20803;DHT22;10562;-33.856;151.182;2022-11-15T05:38:14;24.70;99.90
20803;DHT22;10562;-33.856;151.182;2022-11-15T05:40:45;24.70;99.90
20803;DHT22;10562;-33.856;151.182;2022-11-15T05:43:16;24.80;99.90
20803;DHT22;10562;-33.856;151.182;2022-11-15T05:45:47;24.60;99.90
20803;DHT22;10562;-33.856;151.182;2022-11-15T05:48:18;24.20;99.90
20803;DHT22;10562;-33.856;151.182;2022-11-15T05:50:49;23.80;99.90
20803;DHT22;10562;-33.856;151.182;2022-11-15T05:53:23;23.60;99.90
20803;DHT22;10562;-33.856;151.182;2022-11-15T05:55:55;23.10;99.90
20803;DHT22;10562;-33.856;151.182;2022-11-15T05:58:26;22.90;99.90
20803;DHT22;10562;-33.856;151.182;2022-11-15T06:00:57;22.80;99.90
20803;DHT22;10562;-33.856;151.182;2022-11-15T06:03:28;22.80;99.90
20803;DHT22;10562;-33.856;151.182;2022-11-15T06:05:59;22.80;99.90
20803;DHT22;10562;-33.856;151.182;2022-11-15T06:08:32;22.70;99.90
20803;DHT22;10562;-33.856;151.182;2022-11-15T06:11:06;22.80;99.90
20803;DHT22;10562;-33.856;151.182;2022-11-15T06:13:37;22.60;99.90
20803;DHT22;10562;-33.856;151.182;2022-11-15T06:16:08;22.50;99.90
20803;DHT22;10562;-33.856;151.182;2022-11-15T06:18:41;22.30;99.90
20803;DHT22;10562;-33.856;151.182;2022-11-15T06:21:12;22.20;99.90
20803;DHT22;10562;-33.856;151.182;2022-11-15T06:23:45;22.20;99.90
20803;DHT22;10562;-33.856;151.182;2022-11-15T06:26:16;22.00;99.90
20803;DHT22;10562;-33.856;151.182;2022-11-15T06:28:46;22.10;99.90
20803;DHT22;10562;-33.856;151.182;2022-11-15T06:31:17;22.10;99.90
20803;DHT22;10562;-33.856;151.182;2022-11-15T06:33:48;22.10;99.90
20803;DHT22;10562;-33.856;151.182;2022-11-15T06:36:20;22.10;99.90
20803;DHT22;10562;-33.856;151.182;2022-11-15T06:38:53;22.10;99.90
20803;DHT22;10562;-33.856;151.182;2022-11-15T06:41:24;22.00;99.90
20803;DHT22;10562;-33.856;151.182;2022-11-15T06:43:54;22.10;99.90
20803;DHT22;10562;-33.856;151.182;2022-11-15T06:46:25;22.10;99.90
20803;DHT22;10562;-33.856;151.182;2022-11-15T06:48:56;22.00;99.90
20803;DHT22;10562;-33.856;151.182;2022-11-15T06:51:27;22.00;99.90
20803;DHT22;10562;-33.856;151.182;2022-11-15T06:54:00;22.00;99.90
20803;DHT22;10562;-33.856;151.182;2022-11-15T06:56:31;22.00;99.90
20803;DHT22;10562;-33.856;151.182;2022-11-15T06:59:04;21.90;99.90
20803;DHT22;10562;-33.856;151.182;2022-11-15T07:01:35;22.00;99.90
20803;DHT22;10562;-33.856;151.182;2022-11-15T07:04:06;21.90;99.90
20803;DHT22;10562;-33.856;151.182;2022-11-15T07:06:37;21.80;99.90
20803;DHT22;10562;-33.856;151.182;2022-11-15T07:09:10;21.80;99.90
20803;DHT22;10562;-33.856;151.182;2022-11-15T07:11:41;21.50;99.90
20803;DHT22;10562;-33.856;151.182;2022-11-15T07:14:12;21.40;99.90
20803;DHT22;10562;-33.856;151.182;2022-11-15T07:16:43;21.10;99.90
20803;DHT22;10562;-33.856;151.182;2022-11-15T07:19:13;21.00;99.90
20803;DHT22;10562;-33.856;151.182;2022-11-15T07:21:44;20.80;99.90
20803;DHT22;10562;-33.856;151.182;2022-11-15T07:24:17;20.80;99.90
20803;DHT22;10562;-33.856;151.182;2022-11-15T07:26:48;20.60;99.90
20803;DHT22;10562;-33.856;151.182;2022-11-15T07:29:18;20.50;99.90
20803;DHT22;10562;-33.856;151.182;2022-11-15T07:31:50;20.50;99.90
20803;DHT22;10562;-33.856;151.182;2022-11-15T07:34:21;20.50;99.90
20803;DHT22;10562;-33.856;151.182;2022-11-15T07:36:53;20.60;99.90
20803;DHT22;10562;-33.856;151.182;2022-11-15T07:39:25;20.60;99.90
20803;DHT22;10562;-33.856;151.182;2022-11-15T07:41:56;20.40;99.90
20803;DHT22;10562;-33.856;151.182;2022-11-15T07:44:39;20.30;99.90
20803;DHT22;10562;-33.856;151.182;2022-11-15T07:47:11;20.20;99.90
20803;DHT22;10562;-33.856;151.182;2022-11-15T07:49:41;20.20;99.90
20803;DHT22;10562;-33.856;151.182;2022-11-15T07:52:13;20.10;99.90
20803;DHT22;10562;-33.856;151.182;2022-11-15T07:54:46;19.90;99.90
20803;DHT22;10562;-33.856;151.182;2022-11-15T07:57:17;19.80;99.90
20803;DHT22;10562;-33.856;151.182;2022-11-15T07:59:48;19.80;99.90
20803;DHT22;10562;-33.856;151.182;2022-11-15T08:02:19;19.70;99.90
20803;DHT22;10562;-33.856;151.182;2022-11-15T08:04:49;19.60;99.90
20803;DHT22;10562;-33.856;151.182;2022-11-15T08:07:20;19.40;99.90
20803;DHT22;10562;-33.856;151.182;2022-11-15T08:09:53;19.30;99.90
20803;DHT22;10562;-33.856;151.182;2022-11-15T08:12:24;19.10;99.90
20803;DHT22;10562;-33.856;151.182;2022-11-15T08:14:55;18.80;99.90
20803;DHT22;10562;-33.856;151.182;2022-11-15T08:17:26;18.60;99.90
20803;DHT22;10562;-33.856;151.182;2022-11-15T08:19:59;18.40;99.90
20803;DHT22;10562;-33.856;151.182;2022-11-15T08:22:31;18.30;99.90
20803;DHT22;10562;-33.856;151.182;2022-11-15T08:25:04;18.10;99.90
20803;DHT22;10562;-33.856;151.182;2022-11-15T08:27:35;18.00;99.90
20803;DHT22;10562;-33.856;151.182;2022-11-15T08:30:06;18.00;99.90
20803;DHT22;10562;-33.856;151.182;2022-11-15T08:32:37;17.90;99.90
20803;DHT22;10562;-33.856;151.182;2022-11-15T08:35:09;17.90;99.90
20803;DHT22;10562;-33.856;151.182;2022-11-15T08:37:40;18.10;99.90
20803;DHT22;10562;-33.856;151.182;2022-11-15T08:40:13;18.20;99.90
20803;DHT22;10562;-33.856;151.182;2022-11-15T08:42:46;18.40;99.90
20803;DHT22;10562;-33.856;151.182;2022-11-15T08:45:17;18.50;99.90
20803;DHT22;10562;-33.856;151.182;2022-11-15T08:47:48;18.70;99.90
20803;DHT22;10562;-33.856;151.182;2022-11-15T08:50:19;18.80;99.90
20803;DHT22;10562;-33.856;151.182;2022-11-15T08:52:50;18.70;99.90
20803;DHT22;10562;-33.856;151.182;2022-11-15T08:55:23;18.90;99.90
20803;DHT22;10562;-33.856;151.182;2022-11-15T08:57:58;18.90;99.90
20803;DHT22;10562;-33.856;151.182;2022-11-15T09:00:30;18.70;99.90
20803;DHT22;10562;-33.856;151.182;2022-11-15T09:03:03;18.70;99.90
20803;DHT22;10562;-33.856;151.182;2022-11-15T09:05:36;18.70;99.90
20803;DHT22;10562;-33.856;151.182;2022-11-15T09:08:07;18.70;99.90
20803;DHT22;10562;-33.856;151.182;2022-11-15T09:10:41;18.80;99.90
20803;DHT22;10562;-33.856;151.182;2022-11-15T09:13:12;18.70;99.90
20803;DHT22;10562;-33.856;151.182;2022-11-15T09:15:44;18.70;99.90
20803;DHT22;10562;-33.856;151.182;2022-11-15T09:18:14;18.80;99.90
20803;DHT22;10562;-33.856;151.182;2022-11-15T09:20:45;18.90;99.90
20803;DHT22;10562;-33.856;151.182;2022-11-15T09:23:17;19.00;99.90
20803;DHT22;10562;-33.856;151.182;2022-11-15T09:25:49;19.10;99.90
20803;DHT22;10562;-33.856;151.182;2022-11-15T09:28:20;19.10;99.90
20803;DHT22;10562;-33.856;151.182;2022-11-15T09:30:51;19.10;99.90
20803;DHT22;10562;-33.856;151.182;2022-11-15T09:33:22;19.30;99.90
20803;DHT22;10562;-33.856;151.182;2022-11-15T09:35:52;19.20;99.90
20803;DHT22;10562;-33.856;151.182;2022-11-15T09:38:23;19.20;99.90
20803;DHT22;10562;-33.856;151.182;2022-11-15T09:44:12;19.40;99.90
20803;DHT22;10562;-33.856;151.182;2022-11-15T09:46:51;19.40;99.90
20803;DHT22;10562;-33.856;151.182;2022-11-15T09:49:25;19.40;99.90
20803;DHT22;10562;-33.856;151.182;2022-11-15T09:51:57;19.30;99.90
20803;DHT22;10562;-33.856;151.182;2022-11-15T09:54:30;19.10;99.90
20803;DHT22;10562;-33.856;151.182;2022-11-15T09:57:09;18.90;99.90
20803;DHT22;10562;-33.856;151.182;2022-11-15T10:00:02;18.70;99.90
20803;DHT22;10562;-33.856;151.182;2022-11-15T10:02:45;18.70;99.90
20803;DHT22;10562;-33.856;151.182;2022-11-15T10:05:20;18.70;99.90
20803;DHT22;10562;-33.856;151.182;2022-11-15T10:07:57;18.90;99.90
20803;DHT22;10562;-33.856;151.182;2022-11-15T10:10:34;19.00;99.90
20803;DHT22;10562;-33.856;151.182;2022-11-15T10:13:12;19.20;99.90
20803;DHT22;10562;-33.856;151.182;2022-11-15T10:15:44;19.20;99.90
20803;DHT22;10562;-33.856;151.182;2022-11-15T10:18:19;19.10;99.90
20803;DHT22;10562;-33.856;151.182;2022-11-15T10:20:59;19.30;99.90
20803;DHT22;10562;-33.856;151.182;2022-11-15T10:23:31;19.40;99.90
20803;DHT22;10562;-33.856;151.182;2022-11-15T10:26:04;19.50;99.90
20803;DHT22;10562;-33.856;151.182;2022-11-15T10:28:40;19.50;99.90
20803;DHT22;10562;-33.856;151.182;2022-11-15T10:31:23;19.60;99.90
20803;DHT22;10562;-33.856;151.182;2022-11-15T10:34:05;19.70;99.90
20803;DHT22;10562;-33.856;151.182;2022-11-15T10:36:45;19.70;99.90
20803;DHT22;10562;-33.856;151.182;2022-11-15T10:39:16;19.70;99.90
20803;DHT22;10562;-33.856;151.182;2022-11-15T10:41:47;19.70;99.90
20803;DHT22;10562;-33.856;151.182;2022-11-15T10:44:24;19.70;99.90
20803;DHT22;10562;-33.856;151.182;2022-11-15T10:50:11;19.70;99.90
20803;DHT22;10562;-33.856;151.182;2022-11-15T10:52:56;19.60;99.90
20803;DHT22;10562;-33.856;151.182;2022-11-15T10:55:28;19.50;99.90
20803;DHT22;10562;-33.856;151.182;2022-11-15T10:58:04;19.60;99.90
20803;DHT22;10562;-33.856;151.182;2022-11-15T11:00:38;19.50;99.90
20803;DHT22;10562;-33.856;151.182;2022-11-15T11:03:27;19.50;99.90
20803;DHT22;10562;-33.856;151.182;2022-11-15T11:06:07;19.40;99.90
20803;DHT22;10562;-33.856;151.182;2022-11-15T11:08:38;19.20;99.90
20803;DHT22;10562;-33.856;151.182;2022-11-15T11:11:09;19.10;99.90
20803;DHT22;10562;-33.856;151.182;2022-11-15T11:13:40;18.90;99.90
20803;DHT22;10562;-33.856;151.182;2022-11-15T11:19:31;18.80;99.90
20803;DHT22;10562;-33.856;151.182;2022-11-15T11:22:11;18.70;99.90
20803;DHT22;10562;-33.856;151.182;2022-11-15T11:24:51;18.60;99.90
20803;DHT22;10562;-33.856;151.182;2022-11-15T11:27:34;18.60;99.90
20803;DHT22;10562;-33.856;151.182;2022-11-15T11:30:12;18.60;99.90
20803;DHT22;10562;-33.856;151.182;2022-11-15T11:33:04;18.50;99.90
20803;DHT22;10562;-33.856;151.182;2022-11-15T11:35:42;18.20;99.90
20803;DHT22;10562;-33.856;151.182;2022-11-15T11:41:18;18.00;99.90
20803;DHT22;10562;-33.856;151.182;2022-11-15T11:44:00;17.90;99.90
20803;DHT22;10562;-33.856;151.182;2022-11-15T11:46:52;17.80;99.90
20803;DHT22;10562;-33.856;151.182;2022-11-15T11:49:32;17.70;99.90
20803;DHT22;10562;-33.856;151.182;2022-11-15T11:52:08;17.60;99.90
20803;DHT22;10562;-33.856;151.182;2022-11-15T11:54:54;17.70;99.90
20803;DHT22;10562;-33.856;151.182;2022-11-15T11:57:36;17.70;99.90
20803;DHT22;10562;-33.856;151.182;2022-11-15T12:00:19;17.80;99.90
20803;DHT22;10562;-33.856;151.182;2022-11-15T12:03:01;17.80;99.90
20803;DHT22;10562;-33.856;151.182;2022-11-15T12:05:38;17.80;99.90
20803;DHT22;10562;-33.856;151.182;2022-11-15T12:08:27;17.80;99.90
20803;DHT22;10562;-33.856;151.182;2022-11-15T12:11:06;17.80;99.90
20803;DHT22;10562;-33.856;151.182;2022-11-15T12:13:39;17.80;99.90
20803;DHT22;10562;-33.856;151.182;2022-11-15T12:16:14;17.80;99.90
20803;DHT22;10562;-33.856;151.182;2022-11-15T12:18:50;17.80;99.90
20803;DHT22;10562;-33.856;151.182;2022-11-15T12:21:34;17.70;99.90
20803;DHT22;10562;-33.856;151.182;2022-11-15T12:24:11;17.50;99.90
20803;DHT22;10562;-33.856;151.182;2022-11-15T12:26:48;17.40;99.90
20803;DHT22;10562;-33.856;151.182;2022-11-15T12:29:26;17.40;99.90
20803;DHT22;10562;-33.856;151.182;2022-11-15T12:31:58;17.50;99.90
20803;DHT22;10562;-33.856;151.182;2022-11-15T12:34:38;17.50;99.90
20803;DHT22;10562;-33.856;151.182;2022-11-15T12:40:29;17.30;99.90
20803;DHT22;10562;-33.856;151.182;2022-11-15T12:45:46;17.10;99.90
20803;DHT22;10562;-33.856;151.182;2022-11-15T12:48:46;17.10;99.90
20803;DHT22;10562;-33.856;151.182;2022-11-15T12:51:20;17.10;99.90
20803;DHT22;10562;-33.856;151.182;2022-11-15T12:53:51;17.20;99.90
20803;DHT22;10562;-33.856;151.182;2022-11-15T12:56:25;17.20;99.90
20803;DHT22;10562;-33.856;151.182;2022-11-15T12:58:57;17.30;99.90
20803;DHT22;10562;-33.856;151.182;2022-11-15T13:01:57;17.10;99.90
20803;DHT22;10562;-33.856;151.182;2022-11-15T13:04:30;17.00;99.90
20803;DHT22;10562;-33.856;151.182;2022-11-15T13:07:02;17.10;99.90
20803;DHT22;10562;-33.856;151.182;2022-11-15T13:09:55;16.90;99.90
20803;DHT22;10562;-33.856;151.182;2022-11-15T13:12:53;16.90;99.90
20803;DHT22;10562;-33.856;151.182;2022-11-15T13:15:56;16.80;99.90
20803;DHT22;10562;-33.856;151.182;2022-11-15T13:18:32;16.80;99.90
20803;DHT22;10562;-33.856;151.182;2022-11-15T13:21:04;16.80;99.90
20803;DHT22;10562;-33.856;151.182;2022-11-15T13:23:54;16.80;99.90
20803;DHT22;10562;-33.856;151.182;2022-11-15T13:26:25;16.80;99.90
20803;DHT22;10562;-33.856;151.182;2022-11-15T13:28:58;16.70;99.90
20803;DHT22;10562;-33.856;151.182;2022-11-15T13:31:34;16.70;99.90
20803;DHT22;10562;-33.856;151.182;2022-11-15T13:34:26;16.60;99.90
20803;DHT22;10562;-33.856;151.182;2022-11-15T13:36:58;16.60;99.90
20803;DHT22;10562;-33.856;151.182;2022-11-15T13:39:30;16.50;99.90
20803;DHT22;10562;-33.856;151.182;2022-11-15T13:42:01;16.40;99.90
20803;DHT22;10562;-33.856;151.182;2022-11-15T13:44:34;16.40;99.90
20803;DHT22;10562;-33.856;151.182;2022-11-15T13:47:09;16.30;99.90
20803;DHT22;10562;-33.856;151.182;2022-11-15T13:49:43;16.30;99.90
20803;DHT22;10562;-33.856;151.182;2022-11-15T13:52:15;16.10;99.90
20803;DHT22;10562;-33.856;151.182;2022-11-15T13:54:50;16.10;99.90
20803;DHT22;10562;-33.856;151.182;2022-11-15T13:57:26;16.10;99.90
20803;DHT22;10562;-33.856;151.182;2022-11-15T14:00:03;16.00;99.90
20803;DHT22;10562;-33.856;151.182;2022-11-15T14:02:35;16.00;99.90
20803;DHT22;10562;-33.856;151.182;2022-11-15T14:05:15;16.10;99.90
20803;DHT22;10562;-33.856;151.182;2022-11-15T14:07:55;16.00;99.90
20803;DHT22;10562;-33.856;151.182;2022-11-15T14:10:29;16.00;99.90
20803;DHT22;10562;-33.856;151.182;2022-11-15T14:13:00;16.00;99.90
20803;DHT22;10562;-33.856;151.182;2022-11-15T14:15:34;16.00;99.90
20803;DHT22;10562;-33.856;151.182;2022-11-15T14:18:06;16.00;99.90
20803;DHT22;10562;-33.856;151.182;2022-11-15T14:20:38;15.90;99.90
20803;DHT22;10562;-33.856;151.182;2022-11-15T14:23:23;15.90;99.90
20803;DHT22;10562;-33.856;151.182;2022-11-15T14:25:55;15.80;99.90
20803;DHT22;10562;-33.856;151.182;2022-11-15T14:28:33;15.70;99.90
20803;DHT22;10562;-33.856;151.182;2022-11-15T14:31:12;15.70;99.90
20803;DHT22;10562;-33.856;151.182;2022-11-15T14:33:43;15.70;99.90
20803;DHT22;10562;-33.856;151.182;2022-11-15T14:36:15;15.60;99.90
20803;DHT22;10562;-33.856;151.182;2022-11-15T14:38:49;15.50;99.90
20803;DHT22;10562;-33.856;151.182;2022-11-15T14:41:23;15.60;99.90
20803;DHT22;10562;-33.856;151.182;2022-11-15T14:43:54;15.50;99.90
20803;DHT22;10562;-33.856;151.182;2022-11-15T14:46:27;15.50;99.90
20803;DHT22;10562;-33.856;151.182;2022-11-15T14:48:58;15.50;99.90
20803;DHT22;10562;-33.856;151.182;2022-11-15T14:51:30;15.50;99.90
20803;DHT22;10562;-33.856;151.182;2022-11-15T14:54:01;15.50;99.90
20803;DHT22;10562;-33.856;151.182;2022-11-15T14:56:32;15.60;99.90
20803;DHT22;10562;-33.856;151.182;2022-11-15T14:59:03;15.60;99.90
20803;DHT22;10562;-33.856;151.182;2022-11-15T15:01:36;15.50;99.90
20803;DHT22;10562;-33.856;151.182;2022-11-15T15:04:08;15.60;99.90
20803;DHT22;10562;-33.856;151.182;2022-11-15T15:06:39;15.60;99.90
20803;DHT22;10562;-33.856;151.182;2022-11-15T15:09:10;15.70;99.90
20803;DHT22;10562;-33.856;151.182;2022-11-15T15:11:41;15.70;99.90
20803;DHT22;10562;-33.856;151.182;2022-11-15T15:14:12;15.70;99.90
20803;DHT22;10562;-33.856;151.182;2022-11-15T15:16:46;15.60;99.90
20803;DHT22;10562;-33.856;151.182;2022-11-15T15:19:17;15.70;99.90
20803;DHT22;10562;-33.856;151.182;2022-11-15T15:21:48;15.70;99.90
20803;DHT22;10562;-33.856;151.182;2022-11-15T15:24:19;15.60;99.90
20803;DHT22;10562;-33.856;151.182;2022-11-15T15:26:50;15.50;99.90
20803;DHT22;10562;-33.856;151.182;2022-11-15T15:29:20;15.50;99.90
20803;DHT22;10562;-33.856;151.182;2022-11-15T15:31:53;15.50;99.90
20803;DHT22;10562;-33.856;151.182;2022-11-15T15:34:24;15.50;99.90
20803;DHT22;10562;-33.856;151.182;2022-11-15T15:37:08;15.40;99.90
20803;DHT22;10562;-33.856;151.182;2022-11-15T15:39:39;15.20;99.90
20803;DHT22;10562;-33.856;151.182;2022-11-15T15:42:10;15.30;99.90
20803;DHT22;10562;-33.856;151.182;2022-11-15T15:44:41;15.20;99.90
20803;DHT22;10562;-33.856;151.182;2022-11-15T15:47:15;15.10;99.90
20803;DHT22;10562;-33.856;151.182;2022-11-15T15:49:47;15.20;99.90
20803;DHT22;10562;-33.856;151.182;2022-11-15T15:52:20;15.30;99.90